Startpagina
METAR-TAF:

METAR-TAF

Vliegvelden :

Aéroport de Strasbourg

Straatsburg, Frankrijk

breedte: 48-33N, lengte: 007-38E, hoogte: 153 m

Actueel weer

Dit bericht is 16 minuten geleden gemaakt, om 13:00 UTC
Wind 14 kt uit het noordoosten, variërend tussen het noorden en het oostzuidoosten
Temperatuur 22°C
Vochtigheid 33%
Druk 1019 hPa
Zicht 10 km of meer
geen wolken onder 1500 m en geen cumulonimbus

METAR: LFST 301300Z AUTO 05014KT 360V110 CAVOK 22/05 Q1019 TEMPO 05015G25KT

Tijdstip: 15:16 (13:16 UTC)

Verwachting

Dit bericht is 2 uur en het 16 minuten geleden gemaakt, om 11:00 UTC
Verwachting geldig van 30 om 12 UTC tot 31 om 12 UTC
Wind 12 kt uit het noorden
Zicht 10 km of meer
geen wolken onder 1500 m en geen cumulonimbus
Kans 40% :
Tijdelijke
van 30 om 12 UTC tot 30 om 18 UTC
Wind 15 kt uit het noordoosten met uitschieters tot 25 kt

TAF: LFST 301100Z 3012/3112 01012KT CAVOK PROB40 TEMPO 3012/3018 05015G25KT

Waarnemingen en weersverwachtingen van meer dan 4000 vliegvelden (METAR en TAF).

De beschikbare stations zijn de gele en rode punten op de kaart.

Ga met uw muis naar het station om de naam te zien.

Klik dan om waarnemingen en weersverwachtingen te zien.

kaart wijzigen: klik op de groene knoppen met een zwart kruis om in te zoomen, op de groene knop met een streepje om uit te zoomen of op de groene pijlen voor aangrenzende kaarten.


METAR-TAF: